sensor_id;sensor_type;location;lat;lon;timestamp;pressure;altitude;pressure_sealevel;temperature;humidity
44309;BME280;30022;55.846;37.340;2022-10-16T00:00:32;47684.75;;;-143.51;21.94
44309;BME280;30022;55.846;37.340;2022-10-16T00:02:59;47712.41;;;-143.51;22.05
44309;BME280;30022;55.846;37.340;2022-10-16T00:05:25;47700.56;;;-143.51;21.83
44309;BME280;30022;55.846;37.340;2022-10-16T00:07:51;47672.91;;;-143.51;22.22
44309;BME280;30022;55.846;37.340;2022-10-16T00:10:16;47700.56;;;-143.51;22.10
44309;BME280;30022;55.846;37.340;2022-10-16T00:12:43;47716.34;;;-143.51;21.89
44309;BME280;30022;55.846;37.340;2022-10-16T00:15:09;47696.59;;;-143.51;21.78
44309;BME280;30022;55.846;37.340;2022-10-16T00:17:35;47753.88;;;-143.51;22.00
44309;BME280;30022;55.846;37.340;2022-10-16T00:20:00;47708.44;;;-143.51;21.83
44309;BME280;30022;55.846;37.340;2022-10-16T00:22:45;47714.38;;;-143.51;22.08
44309;BME280;30022;55.846;37.340;2022-10-16T00:25:10;47663.03;;;-143.51;21.84
44309;BME280;30022;55.846;37.340;2022-10-16T00:27:37;47708.44;;;-143.51;21.79
44309;BME280;30022;55.846;37.340;2022-10-16T00:30:03;47680.81;;;-143.51;21.68
44309;BME280;30022;55.846;37.340;2022-10-16T00:32:29;47676.84;;;-143.51;22.02
44309;BME280;30022;55.846;37.340;2022-10-16T00:34:55;47700.56;;;-143.51;21.81
44309;BME280;30022;55.846;37.340;2022-10-16T00:37:20;47738.09;;;-143.51;21.95
44309;BME280;30022;55.846;37.340;2022-10-16T00:39:46;47712.41;;;-143.51;21.70
44309;BME280;30022;55.846;37.340;2022-10-16T00:42:16;47696.59;;;-143.51;21.64
44309;BME280;30022;55.846;37.340;2022-10-16T00:44:53;47742.03;;;-143.51;21.98
44309;BME280;30022;55.846;37.340;2022-10-16T00:49:50;47728.22;;;-143.51;21.80
44309;BME280;30022;55.846;37.340;2022-10-16T00:52:16;47704.50;;;-143.51;21.77
44309;BME280;30022;55.846;37.340;2022-10-16T00:54:43;47726.22;;;-143.51;21.68
44309;BME280;30022;55.846;37.340;2022-10-16T00:57:09;47751.91;;;-143.51;21.72
44309;BME280;30022;55.846;37.340;2022-10-16T00:59:39;47706.47;;;-143.51;21.73
44309;BME280;30022;55.846;37.340;2022-10-16T01:02:05;47728.22;;;-143.51;21.93
44309;BME280;30022;55.846;37.340;2022-10-16T01:04:35;47730.19;;;-143.51;21.92
44309;BME280;30022;55.846;37.340;2022-10-16T01:07:08;47726.22;;;-143.51;21.85
44309;BME280;30022;55.846;37.340;2022-10-16T01:09:38;47700.56;;;-143.51;21.73
44309;BME280;30022;55.846;37.340;2022-10-16T01:14:58;47690.69;;;-143.51;21.84
44309;BME280;30022;55.846;37.340;2022-10-16T01:22:48;47714.38;;;-143.51;21.92
44309;BME280;30022;55.846;37.340;2022-10-16T01:28:03;47641.28;;;-143.51;21.63
44309;BME280;30022;55.846;37.340;2022-10-16T01:30:31;47617.59;;;-143.51;21.93
44309;BME280;30022;55.846;37.340;2022-10-16T01:33:02;47625.50;;;-143.51;21.71
44309;BME280;30022;55.846;37.340;2022-10-16T01:35:32;47645.25;;;-143.51;21.92
44309;BME280;30022;55.846;37.340;2022-10-16T01:38:02;47637.34;;;-143.51;21.75
44309;BME280;30022;55.846;37.340;2022-10-16T01:40:32;47651.16;;;-143.51;21.56
44309;BME280;30022;55.846;37.340;2022-10-16T01:43:00;47637.34;;;-143.51;21.77
44309;BME280;30022;55.846;37.340;2022-10-16T01:45:28;47584.00;;;-143.51;21.93
44309;BME280;30022;55.846;37.340;2022-10-16T01:47:55;47607.72;;;-143.51;21.73
44309;BME280;30022;55.846;37.340;2022-10-16T01:50:21;47607.72;;;-143.51;21.82
44309;BME280;30022;55.846;37.340;2022-10-16T01:52:48;47653.16;;;-143.51;21.88
44309;BME280;30022;55.846;37.340;2022-10-16T01:55:17;47639.31;;;-143.51;21.79
44309;BME280;30022;55.846;37.340;2022-10-16T01:57:44;47690.69;;;-143.51;21.63
44309;BME280;30022;55.846;37.340;2022-10-16T02:00:12;47611.66;;;-143.51;21.83
44309;BME280;30022;55.846;37.340;2022-10-16T02:02:38;47601.78;;;-143.51;21.73
44309;BME280;30022;55.846;37.340;2022-10-16T02:05:11;47576.09;;;-143.51;21.76
44309;BME280;30022;55.846;37.340;2022-10-16T02:07:40;47613.63;;;-143.51;21.61
44309;BME280;30022;55.846;37.340;2022-10-16T02:10:07;47623.50;;;-143.51;21.84
44309;BME280;30022;55.846;37.340;2022-10-16T02:12:34;47589.94;;;-143.51;21.63
44309;BME280;30022;55.846;37.340;2022-10-16T02:15:02;47627.47;;;-143.51;21.63
44309;BME280;30022;55.846;37.340;2022-10-16T02:17:28;47643.28;;;-143.51;21.75
44309;BME280;30022;55.846;37.340;2022-10-16T02:19:54;47635.38;;;-143.51;21.43
44309;BME280;30022;55.846;37.340;2022-10-16T02:22:27;47538.56;;;-143.51;21.78
44309;BME280;30022;55.846;37.340;2022-10-16T02:27:32;47560.31;;;-143.51;21.60
44309;BME280;30022;55.846;37.340;2022-10-16T02:30:02;47572.16;;;-143.51;21.52
44309;BME280;30022;55.846;37.340;2022-10-16T02:32:33;47566.22;;;-143.51;21.76
44309;BME280;30022;55.846;37.340;2022-10-16T02:34:59;47576.09;;;-143.51;21.63
44309;BME280;30022;55.846;37.340;2022-10-16T02:37:25;47587.97;;;-143.51;21.65
44309;BME280;30022;55.846;37.340;2022-10-16T02:39:52;47522.78;;;-143.51;21.60
44309;BME280;30022;55.846;37.340;2022-10-16T02:42:18;47526.72;;;-143.51;21.71
44309;BME280;30022;55.846;37.340;2022-10-16T02:44:44;47520.78;;;-143.51;21.42
44309;BME280;30022;55.846;37.340;2022-10-16T02:47:09;47552.41;;;-143.51;21.74
44309;BME280;30022;55.846;37.340;2022-10-16T02:49:36;47534.63;;;-143.51;20.80
44309;BME280;30022;55.846;37.340;2022-10-16T02:52:01;47554.38;;;-143.51;21.67
44309;BME280;30022;55.846;37.340;2022-10-16T02:54:27;47542.53;;;-143.51;20.88
44309;BME280;30022;55.846;37.340;2022-10-16T02:56:53;47550.44;;;-143.51;21.66
44309;BME280;30022;55.846;37.340;2022-10-16T02:59:18;47578.09;;;-143.51;21.78
44309;BME280;30022;55.846;37.340;2022-10-16T03:01:44;47546.47;;;-143.51;21.75
44309;BME280;30022;55.846;37.340;2022-10-16T03:04:10;47552.41;;;-143.51;21.76
44309;BME280;30022;55.846;37.340;2022-10-16T03:06:35;47526.72;;;-143.51;21.86
44309;BME280;30022;55.846;37.340;2022-10-16T03:09:01;47589.94;;;-143.51;21.60
44309;BME280;30022;55.846;37.340;2022-10-16T03:11:27;47510.91;;;-143.51;21.57
44309;BME280;30022;55.846;37.340;2022-10-16T03:13:53;47538.56;;;-143.51;21.19
44309;BME280;30022;55.846;37.340;2022-10-16T03:16:19;47522.78;;;-143.51;21.65
44309;BME280;30022;55.846;37.340;2022-10-16T03:18:47;47568.22;;;-143.51;21.70
44309;BME280;30022;55.846;37.340;2022-10-16T03:21:13;47536.59;;;-143.51;21.61
44309;BME280;30022;55.846;37.340;2022-10-16T03:23:39;47524.75;;;-143.51;21.55
44309;BME280;30022;55.846;37.340;2022-10-16T03:26:06;47516.84;;;-143.51;21.60
44309;BME280;30022;55.846;37.340;2022-10-16T03:28:31;47560.31;;;-143.51;21.55
44309;BME280;30022;55.846;37.340;2022-10-16T03:30:57;47459.56;;;-143.51;21.65
44309;BME280;30022;55.846;37.340;2022-10-16T03:33:23;47467.47;;;-143.51;21.63
44309;BME280;30022;55.846;37.340;2022-10-16T03:35:52;47467.47;;;-143.51;21.76
44309;BME280;30022;55.846;37.340;2022-10-16T03:38:18;47506.97;;;-143.51;21.54
44309;BME280;30022;55.846;37.340;2022-10-16T03:40:44;47471.41;;;-143.51;21.63
44309;BME280;30022;55.846;37.340;2022-10-16T03:43:09;47491.16;;;-143.51;21.35
44309;BME280;30022;55.846;37.340;2022-10-16T03:45:35;47495.13;;;-143.51;21.45
44309;BME280;30022;55.846;37.340;2022-10-16T03:48:02;47505.00;;;-143.51;21.31
44309;BME280;30022;55.846;37.340;2022-10-16T03:50:28;47524.75;;;-143.51;21.36
44309;BME280;30022;55.846;37.340;2022-10-16T03:52:54;47449.69;;;-143.51;21.55
44309;BME280;30022;55.846;37.340;2022-10-16T03:55:20;47455.63;;;-143.51;21.57
44309;BME280;30022;55.846;37.340;2022-10-16T03:57:46;47475.38;;;-143.51;21.79
44309;BME280;30022;55.846;37.340;2022-10-16T04:00:12;47463.50;;;-143.51;21.68
44309;BME280;30022;55.846;37.340;2022-10-16T04:02:38;47544.50;;;-143.51;21.72
44309;BME280;30022;55.846;37.340;2022-10-16T04:05:05;47518.81;;;-143.51;21.56
44309;BME280;30022;55.846;37.340;2022-10-16T04:07:30;47530.69;;;-143.51;21.34
44309;BME280;30022;55.846;37.340;2022-10-16T04:09:56;47522.78;;;-143.51;21.57
44309;BME280;30022;55.846;37.340;2022-10-16T04:12:24;47530.69;;;-143.51;21.71
44309;BME280;30022;55.846;37.340;2022-10-16T04:14:49;47603.75;;;-143.51;21.34
44309;BME280;30022;55.846;37.340;2022-10-16T04:17:15;47554.38;;;-143.51;21.40
44309;BME280;30022;55.846;37.340;2022-10-16T04:19:41;47568.22;;;-143.51;21.41
44309;BME280;30022;55.846;37.340;2022-10-16T04:22:07;47538.56;;;-143.51;21.34
44309;BME280;30022;55.846;37.340;2022-10-16T04:24:32;47538.56;;;-143.51;21.38
44309;BME280;30022;55.846;37.340;2022-10-16T04:26:58;47501.03;;;-143.51;21.47
44309;BME280;30022;55.846;37.340;2022-10-16T04:29:23;47495.13;;;-143.51;21.56
44309;BME280;30022;55.846;37.340;2022-10-16T04:31:49;47518.81;;;-143.51;21.75
44309;BME280;30022;55.846;37.340;2022-10-16T04:34:15;47501.03;;;-143.51;21.63
44309;BME280;30022;55.846;37.340;2022-10-16T04:36:41;47495.13;;;-143.51;21.67
44309;BME280;30022;55.846;37.340;2022-10-16T04:39:06;47487.22;;;-143.51;21.58
44309;BME280;30022;55.846;37.340;2022-10-16T04:41:32;47479.31;;;-143.51;21.60
44309;BME280;30022;55.846;37.340;2022-10-16T04:43:58;47473.38;;;-143.51;21.46
44309;BME280;30022;55.846;37.340;2022-10-16T04:46:23;47514.88;;;-143.51;21.65
44309;BME280;30022;55.846;37.340;2022-10-16T04:48:49;47554.38;;;-143.51;21.67
44309;BME280;30022;55.846;37.340;2022-10-16T04:51:14;47475.38;;;-143.51;21.78
44309;BME280;30022;55.846;37.340;2022-10-16T04:53:40;47540.56;;;-143.51;21.84
44309;BME280;30022;55.846;37.340;2022-10-16T04:56:06;47526.72;;;-143.51;21.64
44309;BME280;30022;55.846;37.340;2022-10-16T04:58:32;47546.47;;;-143.51;21.68
44309;BME280;30022;55.846;37.340;2022-10-16T05:00:58;47489.19;;;-143.51;21.02
44309;BME280;30022;55.846;37.340;2022-10-16T05:03:24;47514.88;;;-143.51;21.37
44309;BME280;30022;55.846;37.340;2022-10-16T05:05:50;47536.59;;;-143.51;21.82
44309;BME280;30022;55.846;37.340;2022-10-16T05:08:16;47576.09;;;-143.51;21.60
44309;BME280;30022;55.846;37.340;2022-10-16T05:10:42;47574.13;;;-143.51;21.64
44309;BME280;30022;55.846;37.340;2022-10-16T05:13:08;47574.13;;;-143.51;21.50
44309;BME280;30022;55.846;37.340;2022-10-16T05:15:34;47552.41;;;-143.51;21.78
44309;BME280;30022;55.846;37.340;2022-10-16T05:18:00;47651.16;;;-143.51;21.55
44309;BME280;30022;55.846;37.340;2022-10-16T05:20:27;47684.75;;;-143.51;21.72
44309;BME280;30022;55.846;37.340;2022-10-16T05:22:54;47645.25;;;-143.51;21.47
44309;BME280;30022;55.846;37.340;2022-10-16T05:25:19;47627.47;;;-143.51;21.36
44309;BME280;30022;55.846;37.340;2022-10-16T05:27:49;47603.75;;;-143.51;21.74
44309;BME280;30022;55.846;37.340;2022-10-16T05:30:15;47631.41;;;-143.51;21.56
44309;BME280;30022;55.846;37.340;2022-10-16T05:32:41;47651.16;;;-143.51;21.84
44309;BME280;30022;55.846;37.340;2022-10-16T05:35:07;47645.25;;;-143.51;21.67
44309;BME280;30022;55.846;37.340;2022-10-16T05:37:32;47645.25;;;-143.51;21.92
44309;BME280;30022;55.846;37.340;2022-10-16T05:39:58;47702.53;;;-143.51;21.47
44309;BME280;30022;55.846;37.340;2022-10-16T05:42:23;47633.38;;;-143.51;21.96
44309;BME280;30022;55.846;37.340;2022-10-16T05:44:49;47688.69;;;-143.51;21.68
44309;BME280;30022;55.846;37.340;2022-10-16T05:47:14;47672.91;;;-143.51;22.00
44309;BME280;30022;55.846;37.340;2022-10-16T05:49:40;47775.63;;;-143.51;21.60
44309;BME280;30022;55.846;37.340;2022-10-16T05:52:06;47716.34;;;-143.51;21.75
44309;BME280;30022;55.846;37.340;2022-10-16T05:54:31;47700.56;;;-143.51;21.89
44309;BME280;30022;55.846;37.340;2022-10-16T05:56:57;47763.75;;;-143.51;21.53
44309;BME280;30022;55.846;37.340;2022-10-16T05:59:23;47759.81;;;-143.51;21.60
44309;BME280;30022;55.846;37.340;2022-10-16T06:01:48;47783.53;;;-143.51;21.89
44309;BME280;30022;55.846;37.340;2022-10-16T06:04:14;47734.13;;;-143.51;21.62
44309;BME280;30022;55.846;37.340;2022-10-16T06:06:39;47777.59;;;-143.51;22.00
44309;BME280;30022;55.846;37.340;2022-10-16T06:09:05;47755.88;;;-143.51;21.72
44309;BME280;30022;55.846;37.340;2022-10-16T06:11:32;47747.97;;;-143.51;21.65
44309;BME280;30022;55.846;37.340;2022-10-16T06:13:59;47795.38;;;-143.51;21.89
44309;BME280;30022;55.846;37.340;2022-10-16T06:16:31;47797.34;;;-143.51;21.82
44309;BME280;30022;55.846;37.340;2022-10-16T06:18:57;47779.56;;;-143.51;21.99
44309;BME280;30022;55.846;37.340;2022-10-16T06:21:24;47789.44;;;-143.51;21.81
44309;BME280;30022;55.846;37.340;2022-10-16T06:23:51;47787.47;;;-143.51;21.71
44309;BME280;30022;55.846;37.340;2022-10-16T06:26:18;47775.63;;;-143.51;21.87
44309;BME280;30022;55.846;37.340;2022-10-16T06:28:44;47807.22;;;-143.51;21.97
44309;BME280;30022;55.846;37.340;2022-10-16T06:31:10;47775.63;;;-143.51;22.22
44309;BME280;30022;55.846;37.340;2022-10-16T06:33:36;47783.53;;;-143.51;21.69
44309;BME280;30022;55.846;37.340;2022-10-16T06:36:06;47787.47;;;-143.51;22.16
44309;BME280;30022;55.846;37.340;2022-10-16T06:38:33;47783.53;;;-143.51;21.53
44309;BME280;30022;55.846;37.340;2022-10-16T06:40:59;47783.53;;;-143.51;21.81
44309;BME280;30022;55.846;37.340;2022-10-16T06:43:24;47844.75;;;-143.51;21.60
44309;BME280;30022;55.846;37.340;2022-10-16T06:45:56;47773.66;;;-143.51;21.68
44309;BME280;30022;55.846;37.340;2022-10-16T06:48:22;47846.72;;;-143.51;21.74
44309;BME280;30022;55.846;37.340;2022-10-16T06:53:44;47937.59;;;-143.51;21.99
44309;BME280;30022;55.846;37.340;2022-10-16T06:56:14;47900.06;;;-143.51;21.97
44309;BME280;30022;55.846;37.340;2022-10-16T06:58:41;47990.94;;;-143.51;21.76
44309;BME280;30022;55.846;37.340;2022-10-16T07:01:07;47935.63;;;-143.51;22.15
44309;BME280;30022;55.846;37.340;2022-10-16T07:03:33;47906.00;;;-143.51;21.96
44309;BME280;30022;55.846;37.340;2022-10-16T07:06:01;47965.25;;;-143.51;22.27
44309;BME280;30022;55.846;37.340;2022-10-16T07:08:27;47886.25;;;-143.51;21.76
44309;BME280;30022;55.846;37.340;2022-10-16T07:11:03;47971.19;;;-143.51;21.89
44309;BME280;30022;55.846;37.340;2022-10-16T07:13:29;47969.22;;;-143.51;21.03
44309;BME280;30022;55.846;37.340;2022-10-16T07:15:54;48008.72;;;-143.51;21.76
44309;BME280;30022;55.846;37.340;2022-10-16T07:18:20;47953.41;;;-143.51;20.27
44309;BME280;30022;55.846;37.340;2022-10-16T07:20:47;47996.88;;;-143.51;22.10
44309;BME280;30022;55.846;37.340;2022-10-16T07:23:12;47963.28;;;-143.51;22.10
44309;BME280;30022;55.846;37.340;2022-10-16T07:25:38;47969.22;;;-143.51;22.20
44309;BME280;30022;55.846;37.340;2022-10-16T07:28:04;47996.88;;;-143.51;21.98
44309;BME280;30022;55.846;37.340;2022-10-16T07:30:30;48022.56;;;-143.51;22.29
44309;BME280;30022;55.846;37.340;2022-10-16T07:32:56;48020.56;;;-143.51;22.33
44309;BME280;30022;55.846;37.340;2022-10-16T07:35:21;48028.47;;;-143.51;22.08
44309;BME280;30022;55.846;37.340;2022-10-16T07:37:47;48091.69;;;-143.51;22.29
44309;BME280;30022;55.846;37.340;2022-10-16T07:40:13;48044.28;;;-143.51;21.94
44309;BME280;30022;55.846;37.340;2022-10-16T07:42:38;48107.50;;;-143.51;22.16
44309;BME280;30022;55.846;37.340;2022-10-16T07:45:04;48115.41;;;-143.51;22.08
44309;BME280;30022;55.846;37.340;2022-10-16T07:47:31;48071.94;;;-143.51;22.21
44309;BME280;30022;55.846;37.340;2022-10-16T07:49:56;48083.78;;;-143.51;22.27
44309;BME280;30022;55.846;37.340;2022-10-16T07:52:22;48141.09;;;-143.51;22.02
44309;BME280;30022;55.846;37.340;2022-10-16T07:54:47;48192.44;;;-143.51;22.38
44309;BME280;30022;55.846;37.340;2022-10-16T07:57:13;48156.88;;;-143.51;22.27
44309;BME280;30022;55.846;37.340;2022-10-16T07:59:45;48166.78;;;-143.51;22.15
44309;BME280;30022;55.846;37.340;2022-10-16T08:02:11;48249.75;;;-143.51;22.18
44309;BME280;30022;55.846;37.340;2022-10-16T08:04:37;48241.84;;;-143.51;22.17
44309;BME280;30022;55.846;37.340;2022-10-16T08:07:03;48247.78;;;-143.51;22.31
44309;BME280;30022;55.846;37.340;2022-10-16T08:09:28;48241.84;;;-143.51;22.37
44309;BME280;30022;55.846;37.340;2022-10-16T08:11:54;48243.81;;;-143.51;21.97
44309;BME280;30022;55.846;37.340;2022-10-16T08:14:20;48312.97;;;-143.51;22.37
44309;BME280;30022;55.846;37.340;2022-10-16T08:16:45;48293.22;;;-143.51;22.13
44309;BME280;30022;55.846;37.340;2022-10-16T08:19:11;48245.78;;;-143.51;22.12
44309;BME280;30022;55.846;37.340;2022-10-16T08:21:36;48247.78;;;-143.51;22.05
44309;BME280;30022;55.846;37.340;2022-10-16T08:24:02;48289.25;;;-143.51;22.13
44309;BME280;30022;55.846;37.340;2022-10-16T08:26:28;48289.25;;;-143.51;22.24
44309;BME280;30022;55.846;37.340;2022-10-16T08:28:53;48372.25;;;-143.51;22.58
44309;BME280;30022;55.846;37.340;2022-10-16T08:31:19;48314.94;;;-143.51;22.45
44309;BME280;30022;55.846;37.340;2022-10-16T08:33:45;48314.94;;;-143.51;22.43
44309;BME280;30022;55.846;37.340;2022-10-16T08:36:12;48332.72;;;-143.51;22.12
44309;BME280;30022;55.846;37.340;2022-10-16T08:38:38;48478.94;;;-143.51;22.58
44309;BME280;30022;55.846;37.340;2022-10-16T08:46:11;48401.88;;;-143.51;21.85
44309;BME280;30022;55.846;37.340;2022-10-16T08:48:53;48309.00;;;-143.51;21.53
44309;BME280;30022;55.846;37.340;2022-10-16T08:51:22;48293.22;;;-143.51;21.33
44309;BME280;30022;55.846;37.340;2022-10-16T08:53:56;48283.34;;;-143.51;21.23
44309;BME280;30022;55.846;37.340;2022-10-16T08:56:23;48346.56;;;-143.51;21.96
44309;BME280;30022;55.846;37.340;2022-10-16T08:58:51;48376.19;;;-143.51;21.92
44309;BME280;30022;55.846;37.340;2022-10-16T09:01:17;48360.38;;;-143.51;21.96
44309;BME280;30022;55.846;37.340;2022-10-16T09:17:13;48441.38;;;-143.51;21.87
44309;BME280;30022;55.846;37.340;2022-10-16T09:19:50;48512.50;;;-143.51;22.13
44309;BME280;30022;55.846;37.340;2022-10-16T09:22:17;48520.41;;;-143.51;22.33
44309;BME280;30022;55.846;37.340;2022-10-16T09:24:44;48500.66;;;-143.51;22.13
44309;BME280;30022;55.846;37.340;2022-10-16T09:27:14;48480.91;;;-143.51;21.85
44309;BME280;30022;55.846;37.340;2022-10-16T09:29:42;48536.22;;;-143.51;21.89
44309;BME280;30022;55.846;37.340;2022-10-16T09:38:36;48413.72;;;-143.51;21.61
44309;BME280;30022;55.846;37.340;2022-10-16T09:41:13;48445.34;;;-143.51;21.95
44309;BME280;30022;55.846;37.340;2022-10-16T09:43:58;48538.19;;;-143.51;22.29
44309;BME280;30022;55.846;37.340;2022-10-16T09:46:27;48573.75;;;-143.51;21.87
44309;BME280;30022;55.846;37.340;2022-10-16T09:48:56;48415.72;;;-143.51;21.51
44309;BME280;30022;55.846;37.340;2022-10-16T09:51:26;48423.59;;;-143.51;21.47
44309;BME280;30022;55.846;37.340;2022-10-16T09:53:57;48399.91;;;-143.51;20.80
44309;BME280;30022;55.846;37.340;2022-10-16T09:56:28;48443.38;;;-143.51;22.35
44309;BME280;30022;55.846;37.340;2022-10-16T09:58:59;48372.25;;;-143.51;22.32
44309;BME280;30022;55.846;37.340;2022-10-16T10:01:28;48423.59;;;-143.51;22.07
44309;BME280;30022;55.846;37.340;2022-10-16T10:03:57;48524.38;;;-143.51;22.35
44309;BME280;30022;55.846;37.340;2022-10-16T10:06:52;48378.16;;;-143.51;21.41
44309;BME280;30022;55.846;37.340;2022-10-16T10:09:21;48449.28;;;-143.51;22.53
44309;BME280;30022;55.846;37.340;2022-10-16T10:11:59;48469.06;;;-143.51;21.87
44309;BME280;30022;55.846;37.340;2022-10-16T10:14:38;48443.38;;;-143.51;22.29
44309;BME280;30022;55.846;37.340;2022-10-16T10:22:23;48449.28;;;-143.51;21.74
44309;BME280;30022;55.846;37.340;2022-10-16T10:33:45;48237.91;;;-143.51;21.34
44309;BME280;30022;55.846;37.340;2022-10-16T10:36:40;48307.03;;;-143.51;21.73
44309;BME280;30022;55.846;37.340;2022-10-16T10:39:12;48399.91;;;-143.51;21.92
44309;BME280;30022;55.846;37.340;2022-10-16T10:55:26;48526.34;;;-143.51;21.83
44309;BME280;30022;55.846;37.340;2022-10-16T11:06:33;48397.94;;;-143.51;21.46
44309;BME280;30022;55.846;37.340;2022-10-16T11:09:02;48399.91;;;-143.51;21.73
44309;BME280;30022;55.846;37.340;2022-10-16T11:14:26;48546.09;;;-143.51;22.72
44309;BME280;30022;55.846;37.340;2022-10-16T11:22:04;48569.81;;;-143.51;22.25
44309;BME280;30022;55.846;37.340;2022-10-16T11:27:44;48336.69;;;-143.51;21.17
44309;BME280;30022;55.846;37.340;2022-10-16T11:30:16;48467.06;;;-143.51;22.29
44309;BME280;30022;55.846;37.340;2022-10-16T11:32:52;48465.09;;;-143.51;22.10
44309;BME280;30022;55.846;37.340;2022-10-16T11:35:25;48538.19;;;-143.51;22.47
44309;BME280;30022;55.846;37.340;2022-10-16T11:37:59;48273.47;;;-143.51;21.04
44309;BME280;30022;55.846;37.340;2022-10-16T11:40:28;48370.25;;;-143.51;21.31
44309;BME280;30022;55.846;37.340;2022-10-16T11:43:04;48340.63;;;-143.51;21.81
44309;BME280;30022;55.846;37.340;2022-10-16T11:45:55;48486.84;;;-143.51;22.52
44309;BME280;30022;55.846;37.340;2022-10-16T11:48:25;48459.16;;;-143.51;21.50
44309;BME280;30022;55.846;37.340;2022-10-16T11:50:53;48435.47;;;-143.51;21.42
44309;BME280;30022;55.846;37.340;2022-10-16T11:53:23;48346.56;;;-143.51;21.20
44309;BME280;30022;55.846;37.340;2022-10-16T11:55:54;48548.09;;;-143.51;22.58
44309;BME280;30022;55.846;37.340;2022-10-16T12:03:22;48307.03;;;-143.51;21.34
44309;BME280;30022;55.846;37.340;2022-10-16T12:08:36;48407.81;;;-143.51;21.37
44309;BME280;30022;55.846;37.340;2022-10-16T12:11:24;48360.38;;;-143.51;21.39
44309;BME280;30022;55.846;37.340;2022-10-16T12:13:50;48451.28;;;-143.51;22.31
44309;BME280;30022;55.846;37.340;2022-10-16T12:16:19;48382.13;;;-143.51;20.82
44309;BME280;30022;55.846;37.340;2022-10-16T12:18:47;48463.13;;;-143.51;21.54
44309;BME280;30022;55.846;37.340;2022-10-16T12:21:13;48575.75;;;-143.51;21.74
44309;BME280;30022;55.846;37.340;2022-10-16T12:28:50;48474.97;;;-143.51;22.16
44309;BME280;30022;55.846;37.340;2022-10-16T12:31:17;48498.69;;;-143.51;22.50
44309;BME280;30022;55.846;37.340;2022-10-16T12:33:51;48542.16;;;-143.51;22.63
44309;BME280;30022;55.846;37.340;2022-10-16T12:36:31;48457.19;;;-143.51;21.98
44309;BME280;30022;55.846;37.340;2022-10-16T12:39:05;48419.66;;;-143.51;22.07
44309;BME280;30022;55.846;37.340;2022-10-16T12:41:31;48512.50;;;-143.51;22.65
44309;BME280;30022;55.846;37.340;2022-10-16T12:43:58;48550.06;;;-143.51;22.47
44309;BME280;30022;55.846;37.340;2022-10-16T12:49:05;48421.63;;;-143.51;22.10
44309;BME280;30022;55.846;37.340;2022-10-16T12:54:04;48682.44;;;-143.51;22.82
44309;BME280;30022;55.846;37.340;2022-10-16T12:59:18;48577.72;;;-143.51;20.75
44309;BME280;30022;55.846;37.340;2022-10-16T13:10:01;48494.72;;;-143.51;21.81
44309;BME280;30022;55.846;37.340;2022-10-16T13:15:22;48686.38;;;-143.51;22.26
44309;BME280;30022;55.846;37.340;2022-10-16T13:18:04;48615.25;;;-143.51;21.47
44309;BME280;30022;55.846;37.340;2022-10-16T13:23:22;48557.97;;;-143.51;21.75
44309;BME280;30022;55.846;37.340;2022-10-16T13:28:27;48573.75;;;-143.51;22.13
44309;BME280;30022;55.846;37.340;2022-10-16T13:30:55;48605.38;;;-143.51;22.12
44309;BME280;30022;55.846;37.340;2022-10-16T13:35:52;48522.41;;;-143.51;22.38
44309;BME280;30022;55.846;37.340;2022-10-16T13:38:23;48526.34;;;-143.51;22.83
44309;BME280;30022;55.846;37.340;2022-10-16T13:40:53;48546.09;;;-143.51;22.58
44309;BME280;30022;55.846;37.340;2022-10-16T13:43:19;48552.03;;;-143.51;22.00
44309;BME280;30022;55.846;37.340;2022-10-16T13:45:57;48506.59;;;-143.51;20.90
44309;BME280;30022;55.846;37.340;2022-10-16T13:48:24;48518.44;;;-143.51;22.16
44309;BME280;30022;55.846;37.340;2022-10-16T13:53:30;48587.59;;;-143.51;21.92
44309;BME280;30022;55.846;37.340;2022-10-16T13:55:56;48573.75;;;-143.51;22.79
44309;BME280;30022;55.846;37.340;2022-10-16T13:58:22;48597.47;;;-143.51;22.54
44309;BME280;30022;55.846;37.340;2022-10-16T14:00:58;48498.69;;;-143.51;22.54
44309;BME280;30022;55.846;37.340;2022-10-16T14:03:25;48522.41;;;-143.51;22.50
44309;BME280;30022;55.846;37.340;2022-10-16T14:05:53;48510.53;;;-143.51;22.32
44309;BME280;30022;55.846;37.340;2022-10-16T14:08:20;48561.91;;;-143.51;22.57
44309;BME280;30022;55.846;37.340;2022-10-16T14:10:50;48494.72;;;-143.51;22.55
44309;BME280;30022;55.846;37.340;2022-10-16T14:13:20;48506.59;;;-143.51;22.85
44309;BME280;30022;55.846;37.340;2022-10-16T14:15:50;48407.81;;;-143.51;22.11
44309;BME280;30022;55.846;37.340;2022-10-16T14:18:22;48281.34;;;-143.51;21.87
44309;BME280;30022;55.846;37.340;2022-10-16T14:20:52;48397.94;;;-143.51;22.17
44309;BME280;30022;55.846;37.340;2022-10-16T14:23:29;48374.22;;;-143.51;22.18
44309;BME280;30022;55.846;37.340;2022-10-16T14:28:34;48312.97;;;-143.51;22.75
44309;BME280;30022;55.846;37.340;2022-10-16T14:31:01;48259.63;;;-143.51;22.07
44309;BME280;30022;55.846;37.340;2022-10-16T14:38:36;48237.91;;;-143.51;22.70
44309;BME280;30022;55.846;37.340;2022-10-16T14:41:03;48257.66;;;-143.51;22.44
44309;BME280;30022;55.846;37.340;2022-10-16T14:46:17;48275.44;;;-143.51;22.77
44309;BME280;30022;55.846;37.340;2022-10-16T14:48:50;48156.88;;;-143.51;22.25
44309;BME280;30022;55.846;37.340;2022-10-16T14:51:16;48210.22;;;-143.51;22.36
44309;BME280;30022;55.846;37.340;2022-10-16T14:53:43;48226.03;;;-143.51;22.82
44309;BME280;30022;55.846;37.340;2022-10-16T14:56:18;48220.13;;;-143.51;21.86
44309;BME280;30022;55.846;37.340;2022-10-16T14:58:44;48251.72;;;-143.51;22.99